sensor_id;sensor_type;location;lat;lon;timestamp;P1;durP1;ratioP1;P2;durP2;ratioP2
22289;SDS011;11313;50.116;8.424;2022-08-19T00:00:11;9.25;;;6.75;;
22289;SDS011;11313;50.116;8.424;2022-08-19T00:02:38;10.30;;;7.25;;
22289;SDS011;11313;50.116;8.424;2022-08-19T00:05:04;9.48;;;6.70;;
22289;SDS011;11313;50.116;8.424;2022-08-19T00:07:30;10.55;;;6.68;;
22289;SDS011;11313;50.116;8.424;2022-08-19T00:09:56;9.27;;;6.43;;
22289;SDS011;11313;50.116;8.424;2022-08-19T00:12:22;10.18;;;6.93;;
22289;SDS011;11313;50.116;8.424;2022-08-19T00:14:47;11.23;;;6.95;;
22289;SDS011;11313;50.116;8.424;2022-08-19T00:17:13;9.60;;;7.00;;
22289;SDS011;11313;50.116;8.424;2022-08-19T00:19:38;9.45;;;6.45;;
22289;SDS011;11313;50.116;8.424;2022-08-19T00:22:05;9.63;;;7.07;;
22289;SDS011;11313;50.116;8.424;2022-08-19T00:24:31;8.70;;;6.65;;
22289;SDS011;11313;50.116;8.424;2022-08-19T00:26:57;9.10;;;6.60;;
22289;SDS011;11313;50.116;8.424;2022-08-19T00:29:24;9.35;;;6.68;;
22289;SDS011;11313;50.116;8.424;2022-08-19T00:31:50;8.85;;;6.53;;
22289;SDS011;11313;50.116;8.424;2022-08-19T00:34:21;10.23;;;6.93;;
22289;SDS011;11313;50.116;8.424;2022-08-19T00:36:47;9.40;;;6.85;;
22289;SDS011;11313;50.116;8.424;2022-08-19T00:39:14;8.40;;;6.18;;
22289;SDS011;11313;50.116;8.424;2022-08-19T00:41:41;8.80;;;6.85;;
22289;SDS011;11313;50.116;8.424;2022-08-19T00:44:09;10.30;;;6.50;;
22289;SDS011;11313;50.116;8.424;2022-08-19T00:46:41;8.63;;;6.38;;
22289;SDS011;11313;50.116;8.424;2022-08-19T00:49:12;9.77;;;6.70;;
22289;SDS011;11313;50.116;8.424;2022-08-19T00:51:50;11.15;;;6.38;;
22289;SDS011;11313;50.116;8.424;2022-08-19T00:54:18;9.48;;;6.60;;
22289;SDS011;11313;50.116;8.424;2022-08-19T00:56:46;9.43;;;6.32;;
22289;SDS011;11313;50.116;8.424;2022-08-19T00:59:13;8.80;;;6.30;;
22289;SDS011;11313;50.116;8.424;2022-08-19T01:01:41;10.40;;;6.35;;
22289;SDS011;11313;50.116;8.424;2022-08-19T01:04:08;9.88;;;6.75;;
22289;SDS011;11313;50.116;8.424;2022-08-19T01:06:34;10.13;;;6.50;;
22289;SDS011;11313;50.116;8.424;2022-08-19T01:09:02;10.43;;;6.47;;
22289;SDS011;11313;50.116;8.424;2022-08-19T01:11:29;9.02;;;6.43;;
22289;SDS011;11313;50.116;8.424;2022-08-19T01:13:58;9.30;;;6.53;;
22289;SDS011;11313;50.116;8.424;2022-08-19T01:16:25;8.25;;;6.03;;
22289;SDS011;11313;50.116;8.424;2022-08-19T01:18:51;9.25;;;6.82;;
22289;SDS011;11313;50.116;8.424;2022-08-19T01:23:46;9.68;;;7.20;;
22289;SDS011;11313;50.116;8.424;2022-08-19T01:26:15;9.35;;;6.82;;
22289;SDS011;11313;50.116;8.424;2022-08-19T01:28:43;8.82;;;6.65;;
22289;SDS011;11313;50.116;8.424;2022-08-19T01:31:15;9.70;;;6.65;;
22289;SDS011;11313;50.116;8.424;2022-08-19T01:33:44;8.85;;;6.57;;
22289;SDS011;11313;50.116;8.424;2022-08-19T01:36:13;9.73;;;6.68;;
22289;SDS011;11313;50.116;8.424;2022-08-19T01:38:41;10.02;;;6.65;;
22289;SDS011;11313;50.116;8.424;2022-08-19T01:41:10;8.23;;;6.38;;
22289;SDS011;11313;50.116;8.424;2022-08-19T01:43:37;9.45;;;6.63;;
22289;SDS011;11313;50.116;8.424;2022-08-19T01:46:03;10.63;;;7.00;;
22289;SDS011;11313;50.116;8.424;2022-08-19T01:48:33;9.30;;;6.65;;
22289;SDS011;11313;50.116;8.424;2022-08-19T01:51:00;10.43;;;7.22;;
22289;SDS011;11313;50.116;8.424;2022-08-19T01:53:26;10.48;;;6.95;;
22289;SDS011;11313;50.116;8.424;2022-08-19T01:55:52;9.25;;;6.88;;
22289;SDS011;11313;50.116;8.424;2022-08-19T01:58:21;9.52;;;6.70;;
22289;SDS011;11313;50.116;8.424;2022-08-19T02:00:49;8.98;;;6.35;;
22289;SDS011;11313;50.116;8.424;2022-08-19T02:03:15;9.73;;;6.50;;
22289;SDS011;11313;50.116;8.424;2022-08-19T02:05:42;9.38;;;6.85;;
22289;SDS011;11313;50.116;8.424;2022-08-19T02:08:09;7.70;;;5.97;;
22289;SDS011;11313;50.116;8.424;2022-08-19T02:10:38;8.48;;;6.43;;
22289;SDS011;11313;50.116;8.424;2022-08-19T02:15:31;7.40;;;5.60;;
22289;SDS011;11313;50.116;8.424;2022-08-19T02:17:57;8.68;;;6.38;;
22289;SDS011;11313;50.116;8.424;2022-08-19T02:20:23;9.38;;;6.65;;
22289;SDS011;11313;50.116;8.424;2022-08-19T02:22:48;9.02;;;6.70;;
22289;SDS011;11313;50.116;8.424;2022-08-19T02:25:14;10.48;;;6.72;;
22289;SDS011;11313;50.116;8.424;2022-08-19T02:27:40;9.23;;;7.00;;
22289;SDS011;11313;50.116;8.424;2022-08-19T02:30:08;8.43;;;6.57;;
22289;SDS011;11313;50.116;8.424;2022-08-19T02:35:03;9.13;;;6.97;;
22289;SDS011;11313;50.116;8.424;2022-08-19T02:37:29;9.27;;;6.68;;
22289;SDS011;11313;50.116;8.424;2022-08-19T02:40:13;9.05;;;6.53;;
22289;SDS011;11313;50.116;8.424;2022-08-19T02:42:39;9.48;;;6.95;;
22289;SDS011;11313;50.116;8.424;2022-08-19T02:45:06;9.30;;;6.75;;
22289;SDS011;11313;50.116;8.424;2022-08-19T02:47:32;9.27;;;6.60;;
22289;SDS011;11313;50.116;8.424;2022-08-19T02:49:58;9.40;;;7.22;;
22289;SDS011;11313;50.116;8.424;2022-08-19T02:52:23;9.63;;;6.75;;
22289;SDS011;11313;50.116;8.424;2022-08-19T02:54:50;8.35;;;6.65;;
22289;SDS011;11313;50.116;8.424;2022-08-19T02:57:15;11.57;;;6.85;;
22289;SDS011;11313;50.116;8.424;2022-08-19T02:59:41;10.75;;;7.20;;
22289;SDS011;11313;50.116;8.424;2022-08-19T03:02:06;10.35;;;7.00;;
22289;SDS011;11313;50.116;8.424;2022-08-19T03:04:32;9.52;;;6.93;;
22289;SDS011;11313;50.116;8.424;2022-08-19T03:06:57;8.98;;;6.80;;
22289;SDS011;11313;50.116;8.424;2022-08-19T03:09:26;9.40;;;6.78;;
22289;SDS011;11313;50.116;8.424;2022-08-19T03:11:51;10.13;;;7.30;;
22289;SDS011;11313;50.116;8.424;2022-08-19T03:14:17;8.95;;;7.18;;
22289;SDS011;11313;50.116;8.424;2022-08-19T03:16:48;10.68;;;7.32;;
22289;SDS011;11313;50.116;8.424;2022-08-19T03:19:16;10.85;;;7.32;;
22289;SDS011;11313;50.116;8.424;2022-08-19T03:21:43;8.52;;;6.90;;
22289;SDS011;11313;50.116;8.424;2022-08-19T03:24:10;10.25;;;7.50;;
22289;SDS011;11313;50.116;8.424;2022-08-19T03:26:43;9.32;;;6.75;;
22289;SDS011;11313;50.116;8.424;2022-08-19T03:29:12;10.00;;;7.55;;
22289;SDS011;11313;50.116;8.424;2022-08-19T03:31:39;10.05;;;7.10;;
22289;SDS011;11313;50.116;8.424;2022-08-19T03:34:06;9.40;;;6.97;;
22289;SDS011;11313;50.116;8.424;2022-08-19T03:36:33;9.35;;;7.20;;
22289;SDS011;11313;50.116;8.424;2022-08-19T03:38:59;10.02;;;7.35;;
22289;SDS011;11313;50.116;8.424;2022-08-19T03:41:27;8.98;;;7.18;;
22289;SDS011;11313;50.116;8.424;2022-08-19T03:43:58;9.88;;;7.18;;
22289;SDS011;11313;50.116;8.424;2022-08-19T03:46:27;9.02;;;6.78;;
22289;SDS011;11313;50.116;8.424;2022-08-19T03:48:56;9.02;;;7.28;;
22289;SDS011;11313;50.116;8.424;2022-08-19T03:51:27;9.18;;;6.93;;
22289;SDS011;11313;50.116;8.424;2022-08-19T03:54:00;9.68;;;6.70;;
22289;SDS011;11313;50.116;8.424;2022-08-19T03:56:28;8.60;;;6.47;;
22289;SDS011;11313;50.116;8.424;2022-08-19T03:58:55;9.50;;;7.15;;
22289;SDS011;11313;50.116;8.424;2022-08-19T04:01:22;9.00;;;6.57;;
22289;SDS011;11313;50.116;8.424;2022-08-19T04:03:51;8.85;;;6.78;;
22289;SDS011;11313;50.116;8.424;2022-08-19T04:06:24;8.00;;;6.53;;
22289;SDS011;11313;50.116;8.424;2022-08-19T04:08:52;10.32;;;7.18;;
22289;SDS011;11313;50.116;8.424;2022-08-19T04:11:24;8.73;;;6.47;;
22289;SDS011;11313;50.116;8.424;2022-08-19T04:13:51;10.85;;;6.60;;
22289;SDS011;11313;50.116;8.424;2022-08-19T04:16:18;8.45;;;6.53;;
22289;SDS011;11313;50.116;8.424;2022-08-19T04:18:45;9.52;;;7.00;;
22289;SDS011;11313;50.116;8.424;2022-08-19T04:21:16;8.98;;;6.78;;
22289;SDS011;11313;50.116;8.424;2022-08-19T04:23:43;9.23;;;6.97;;
22289;SDS011;11313;50.116;8.424;2022-08-19T04:26:29;10.32;;;7.30;;
22289;SDS011;11313;50.116;8.424;2022-08-19T04:28:57;9.90;;;7.03;;
22289;SDS011;11313;50.116;8.424;2022-08-19T04:31:25;11.65;;;7.45;;
22289;SDS011;11313;50.116;8.424;2022-08-19T04:33:53;9.77;;;6.82;;
22289;SDS011;11313;50.116;8.424;2022-08-19T04:36:22;11.02;;;7.47;;
22289;SDS011;11313;50.116;8.424;2022-08-19T04:38:52;12.65;;;8.10;;
22289;SDS011;11313;50.116;8.424;2022-08-19T04:41:19;10.98;;;7.38;;
22289;SDS011;11313;50.116;8.424;2022-08-19T04:44:03;12.88;;;7.70;;
22289;SDS011;11313;50.116;8.424;2022-08-19T04:46:29;16.40;;;7.80;;
22289;SDS011;11313;50.116;8.424;2022-08-19T04:48:57;13.35;;;8.10;;
22289;SDS011;11313;50.116;8.424;2022-08-19T04:51:24;13.68;;;7.88;;
22289;SDS011;11313;50.116;8.424;2022-08-19T04:53:50;16.42;;;7.80;;
22289;SDS011;11313;50.116;8.424;2022-08-19T04:56:18;14.82;;;7.70;;
22289;SDS011;11313;50.116;8.424;2022-08-19T04:58:47;14.52;;;8.35;;
22289;SDS011;11313;50.116;8.424;2022-08-19T05:01:14;14.50;;;7.75;;
22289;SDS011;11313;50.116;8.424;2022-08-19T05:03:42;14.97;;;7.27;;
22289;SDS011;11313;50.116;8.424;2022-08-19T05:06:09;14.48;;;8.10;;
22289;SDS011;11313;50.116;8.424;2022-08-19T05:08:37;12.77;;;8.05;;
22289;SDS011;11313;50.116;8.424;2022-08-19T05:11:09;14.95;;;7.97;;
22289;SDS011;11313;50.116;8.424;2022-08-19T05:13:38;26.25;;;16.40;;
22289;SDS011;11313;50.116;8.424;2022-08-19T16:22:05;4.70;;;4.07;;
22289;SDS011;11313;50.116;8.424;2022-08-19T16:24:31;5.50;;;4.07;;
22289;SDS011;11313;50.116;8.424;2022-08-19T16:26:59;5.35;;;4.22;;
22289;SDS011;11313;50.116;8.424;2022-08-19T16:29:25;6.57;;;4.28;;
22289;SDS011;11313;50.116;8.424;2022-08-19T16:31:51;5.30;;;4.20;;
22289;SDS011;11313;50.116;8.424;2022-08-19T16:34:19;10.82;;;4.30;;
22289;SDS011;11313;50.116;8.424;2022-08-19T16:36:45;7.00;;;4.38;;
22289;SDS011;11313;50.116;8.424;2022-08-19T16:39:12;7.15;;;4.88;;
22289;SDS011;11313;50.116;8.424;2022-08-19T16:41:39;7.70;;;4.38;;
22289;SDS011;11313;50.116;8.424;2022-08-19T16:44:07;8.73;;;4.50;;
22289;SDS011;11313;50.116;8.424;2022-08-19T16:46:34;7.55;;;4.43;;
22289;SDS011;11313;50.116;8.424;2022-08-19T16:49:01;6.95;;;4.47;;
22289;SDS011;11313;50.116;8.424;2022-08-19T16:51:28;8.85;;;5.00;;
22289;SDS011;11313;50.116;8.424;2022-08-19T16:53:53;8.35;;;5.18;;
22289;SDS011;11313;50.116;8.424;2022-08-19T16:56:20;9.25;;;4.70;;
22289;SDS011;11313;50.116;8.424;2022-08-19T16:58:46;9.43;;;4.90;;
22289;SDS011;11313;50.116;8.424;2022-08-19T17:01:14;8.88;;;4.65;;
22289;SDS011;11313;50.116;8.424;2022-08-19T17:03:39;8.82;;;4.55;;
22289;SDS011;11313;50.116;8.424;2022-08-19T17:06:10;8.65;;;4.68;;
22289;SDS011;11313;50.116;8.424;2022-08-19T17:08:37;10.45;;;5.13;;
22289;SDS011;11313;50.116;8.424;2022-08-19T17:11:03;7.10;;;4.72;;
22289;SDS011;11313;50.116;8.424;2022-08-19T17:13:29;8.73;;;4.38;;
22289;SDS011;11313;50.116;8.424;2022-08-19T17:15:55;8.63;;;4.63;;
22289;SDS011;11313;50.116;8.424;2022-08-19T17:18:21;7.55;;;5.00;;
22289;SDS011;11313;50.116;8.424;2022-08-19T17:20:47;7.53;;;4.82;;
22289;SDS011;11313;50.116;8.424;2022-08-19T17:23:15;8.43;;;4.78;;
22289;SDS011;11313;50.116;8.424;2022-08-19T17:25:41;9.98;;;4.90;;
22289;SDS011;11313;50.116;8.424;2022-08-19T17:28:08;7.13;;;4.53;;
22289;SDS011;11313;50.116;8.424;2022-08-19T17:30:38;7.25;;;5.07;;
22289;SDS011;11313;50.116;8.424;2022-08-19T17:33:05;8.35;;;4.65;;
22289;SDS011;11313;50.116;8.424;2022-08-19T17:35:31;9.15;;;5.00;;
22289;SDS011;11313;50.116;8.424;2022-08-19T17:37:57;8.75;;;4.68;;
22289;SDS011;11313;50.116;8.424;2022-08-19T17:42:53;8.52;;;4.85;;
22289;SDS011;11313;50.116;8.424;2022-08-19T17:45:18;8.20;;;4.97;;
22289;SDS011;11313;50.116;8.424;2022-08-19T17:47:45;7.70;;;4.80;;
22289;SDS011;11313;50.116;8.424;2022-08-19T17:50:10;10.40;;;5.00;;
22289;SDS011;11313;50.116;8.424;2022-08-19T17:52:40;7.95;;;4.47;;
22289;SDS011;11313;50.116;8.424;2022-08-19T17:55:06;9.05;;;4.80;;
22289;SDS011;11313;50.116;8.424;2022-08-19T17:57:34;10.23;;;5.20;;
22289;SDS011;11313;50.116;8.424;2022-08-19T18:00:04;7.03;;;4.90;;
22289;SDS011;11313;50.116;8.424;2022-08-19T18:02:30;8.15;;;4.50;;
22289;SDS011;11313;50.116;8.424;2022-08-19T18:04:56;8.57;;;4.85;;
22289;SDS011;11313;50.116;8.424;2022-08-19T18:07:22;7.82;;;4.65;;
22289;SDS011;11313;50.116;8.424;2022-08-19T18:09:47;6.28;;;4.35;;
22289;SDS011;11313;50.116;8.424;2022-08-19T18:12:19;8.30;;;4.70;;
22289;SDS011;11313;50.116;8.424;2022-08-19T18:14:47;10.00;;;4.47;;
22289;SDS011;11313;50.116;8.424;2022-08-19T18:17:13;6.68;;;4.28;;
22289;SDS011;11313;50.116;8.424;2022-08-19T18:19:41;6.55;;;4.47;;
22289;SDS011;11313;50.116;8.424;2022-08-19T18:22:11;6.75;;;4.63;;
22289;SDS011;11313;50.116;8.424;2022-08-19T18:24:46;9.07;;;4.68;;
22289;SDS011;11313;50.116;8.424;2022-08-19T18:27:12;7.25;;;4.10;;
22289;SDS011;11313;50.116;8.424;2022-08-19T18:29:38;9.77;;;4.68;;
22289;SDS011;11313;50.116;8.424;2022-08-19T18:32:04;8.93;;;4.63;;
22289;SDS011;11313;50.116;8.424;2022-08-19T18:34:36;6.93;;;4.35;;
22289;SDS011;11313;50.116;8.424;2022-08-19T18:37:02;8.77;;;4.60;;
22289;SDS011;11313;50.116;8.424;2022-08-19T18:39:27;7.10;;;4.60;;
22289;SDS011;11313;50.116;8.424;2022-08-19T18:42:12;7.40;;;4.35;;
22289;SDS011;11313;50.116;8.424;2022-08-19T18:45:00;7.32;;;4.47;;
22289;SDS011;11313;50.116;8.424;2022-08-19T18:47:45;8.80;;;4.43;;
22289;SDS011;11313;50.116;8.424;2022-08-19T18:50:29;9.10;;;4.25;;
22289;SDS011;11313;50.116;8.424;2022-08-19T18:52:54;8.07;;;4.32;;
22289;SDS011;11313;50.116;8.424;2022-08-19T18:55:20;5.45;;;4.47;;
22289;SDS011;11313;50.116;8.424;2022-08-19T18:57:47;7.72;;;4.20;;
22289;SDS011;11313;50.116;8.424;2022-08-19T19:00:14;5.82;;;4.05;;
22289;SDS011;11313;50.116;8.424;2022-08-19T19:02:40;7.95;;;4.38;;
22289;SDS011;11313;50.116;8.424;2022-08-19T19:05:07;5.63;;;4.32;;
22289;SDS011;11313;50.116;8.424;2022-08-19T19:07:36;6.68;;;3.88;;
22289;SDS011;11313;50.116;8.424;2022-08-19T19:10:01;6.72;;;4.70;;
22289;SDS011;11313;50.116;8.424;2022-08-19T19:12:28;6.72;;;4.20;;
22289;SDS011;11313;50.116;8.424;2022-08-19T19:14:53;4.50;;;3.63;;
22289;SDS011;11313;50.116;8.424;2022-08-19T19:17:19;6.55;;;4.30;;
22289;SDS011;11313;50.116;8.424;2022-08-19T19:19:52;7.25;;;3.88;;
22289;SDS011;11313;50.116;8.424;2022-08-19T19:22:18;5.60;;;4.20;;
22289;SDS011;11313;50.116;8.424;2022-08-19T19:24:45;7.53;;;3.67;;
22289;SDS011;11313;50.116;8.424;2022-08-19T19:27:13;5.43;;;4.30;;
22289;SDS011;11313;50.116;8.424;2022-08-19T19:29:42;6.20;;;3.88;;
22289;SDS011;11313;50.116;8.424;2022-08-19T19:32:18;6.13;;;4.20;;
22289;SDS011;11313;50.116;8.424;2022-08-19T19:34:53;5.93;;;4.07;;
22289;SDS011;11313;50.116;8.424;2022-08-19T19:37:19;5.10;;;4.13;;
22289;SDS011;11313;50.116;8.424;2022-08-19T19:39:46;6.38;;;4.38;;
22289;SDS011;11313;50.116;8.424;2022-08-19T19:42:13;6.47;;;4.20;;
22289;SDS011;11313;50.116;8.424;2022-08-19T19:44:42;6.45;;;4.10;;
22289;SDS011;11313;50.116;8.424;2022-08-19T19:47:10;5.45;;;3.97;;
22289;SDS011;11313;50.116;8.424;2022-08-19T19:49:36;7.10;;;4.30;;
22289;SDS011;11313;50.116;8.424;2022-08-19T19:52:04;5.82;;;3.88;;
22289;SDS011;11313;50.116;8.424;2022-08-19T19:54:31;4.75;;;3.63;;
22289;SDS011;11313;50.116;8.424;2022-08-19T19:56:57;6.03;;;4.07;;
22289;SDS011;11313;50.116;8.424;2022-08-19T19:59:22;5.47;;;4.07;;
22289;SDS011;11313;50.116;8.424;2022-08-19T20:01:48;5.93;;;3.72;;
22289;SDS011;11313;50.116;8.424;2022-08-19T20:04:15;5.35;;;3.83;;
22289;SDS011;11313;50.116;8.424;2022-08-19T20:06:42;8.73;;;4.18;;
22289;SDS011;11313;50.116;8.424;2022-08-19T20:09:09;6.22;;;3.75;;
22289;SDS011;11313;50.116;8.424;2022-08-19T20:11:52;7.15;;;4.07;;
22289;SDS011;11313;50.116;8.424;2022-08-19T20:14:24;5.40;;;3.63;;
22289;SDS011;11313;50.116;8.424;2022-08-19T20:16:55;5.75;;;3.90;;
22289;SDS011;11313;50.116;8.424;2022-08-19T20:19:24;6.55;;;4.00;;
22289;SDS011;11313;50.116;8.424;2022-08-19T20:21:52;5.60;;;4.20;;
22289;SDS011;11313;50.116;8.424;2022-08-19T20:24:22;5.15;;;3.97;;
22289;SDS011;11313;50.116;8.424;2022-08-19T20:26:58;6.30;;;4.25;;
22289;SDS011;11313;50.116;8.424;2022-08-19T20:29:25;5.03;;;4.15;;
22289;SDS011;11313;50.116;8.424;2022-08-19T20:31:51;5.50;;;3.92;;
22289;SDS011;11313;50.116;8.424;2022-08-19T20:34:16;6.05;;;3.88;;
22289;SDS011;11313;50.116;8.424;2022-08-19T20:36:42;6.32;;;3.50;;
22289;SDS011;11313;50.116;8.424;2022-08-19T20:39:08;5.60;;;3.75;;
22289;SDS011;11313;50.116;8.424;2022-08-19T20:41:35;4.55;;;3.67;;
22289;SDS011;11313;50.116;8.424;2022-08-19T20:44:01;4.93;;;3.78;;
22289;SDS011;11313;50.116;8.424;2022-08-19T20:46:29;5.63;;;3.90;;
22289;SDS011;11313;50.116;8.424;2022-08-19T20:48:55;5.60;;;4.15;;
22289;SDS011;11313;50.116;8.424;2022-08-19T20:51:22;6.22;;;4.05;;
22289;SDS011;11313;50.116;8.424;2022-08-19T20:53:49;5.40;;;4.05;;
22289;SDS011;11313;50.116;8.424;2022-08-19T20:56:16;4.97;;;3.72;;
22289;SDS011;11313;50.116;8.424;2022-08-19T20:58:42;4.30;;;3.45;;
22289;SDS011;11313;50.116;8.424;2022-08-19T21:01:07;3.97;;;3.42;;
22289;SDS011;11313;50.116;8.424;2022-08-19T21:03:35;4.07;;;3.67;;
22289;SDS011;11313;50.116;8.424;2022-08-19T21:06:05;4.55;;;3.90;;
22289;SDS011;11313;50.116;8.424;2022-08-19T21:08:31;4.97;;;3.63;;
22289;SDS011;11313;50.116;8.424;2022-08-19T21:10:57;5.13;;;4.00;;
22289;SDS011;11313;50.116;8.424;2022-08-19T21:13:23;4.55;;;3.47;;
22289;SDS011;11313;50.116;8.424;2022-08-19T21:15:49;4.88;;;3.53;;
22289;SDS011;11313;50.116;8.424;2022-08-19T21:18:16;5.03;;;3.92;;
22289;SDS011;11313;50.116;8.424;2022-08-19T21:20:43;4.18;;;3.40;;
22289;SDS011;11313;50.116;8.424;2022-08-19T21:23:11;5.43;;;3.95;;
22289;SDS011;11313;50.116;8.424;2022-08-19T21:25:41;5.07;;;3.67;;
22289;SDS011;11313;50.116;8.424;2022-08-19T21:28:06;4.95;;;3.67;;
22289;SDS011;11313;50.116;8.424;2022-08-19T21:30:32;5.30;;;4.00;;
22289;SDS011;11313;50.116;8.424;2022-08-19T21:32:59;4.90;;;3.50;;
22289;SDS011;11313;50.116;8.424;2022-08-19T21:35:26;5.53;;;3.70;;
22289;SDS011;11313;50.116;8.424;2022-08-19T21:37:52;4.30;;;3.72;;
22289;SDS011;11313;50.116;8.424;2022-08-19T21:40:18;4.65;;;3.60;;
22289;SDS011;11313;50.116;8.424;2022-08-19T21:42:44;4.47;;;3.50;;
22289;SDS011;11313;50.116;8.424;2022-08-19T21:45:10;5.60;;;3.80;;
22289;SDS011;11313;50.116;8.424;2022-08-19T21:47:37;5.20;;;3.53;;
22289;SDS011;11313;50.116;8.424;2022-08-19T21:50:03;4.68;;;3.35;;
22289;SDS011;11313;50.116;8.424;2022-08-19T21:52:29;5.05;;;3.45;;
22289;SDS011;11313;50.116;8.424;2022-08-19T21:54:55;4.90;;;3.70;;
22289;SDS011;11313;50.116;8.424;2022-08-19T21:57:22;4.63;;;3.60;;
22289;SDS011;11313;50.116;8.424;2022-08-19T21:59:48;4.72;;;3.40;;
22289;SDS011;11313;50.116;8.424;2022-08-19T22:02:15;4.68;;;3.47;;
22289;SDS011;11313;50.116;8.424;2022-08-19T22:04:41;5.97;;;3.60;;
22289;SDS011;11313;50.116;8.424;2022-08-19T22:07:08;4.97;;;3.70;;
22289;SDS011;11313;50.116;8.424;2022-08-19T22:09:36;5.03;;;3.70;;
22289;SDS011;11313;50.116;8.424;2022-08-19T22:12:03;5.63;;;3.42;;
22289;SDS011;11313;50.116;8.424;2022-08-19T22:14:30;4.68;;;3.38;;
22289;SDS011;11313;50.116;8.424;2022-08-19T22:16:57;5.18;;;3.30;;
22289;SDS011;11313;50.116;8.424;2022-08-19T22:19:25;4.45;;;3.67;;
22289;SDS011;11313;50.116;8.424;2022-08-19T22:21:51;4.75;;;3.60;;
22289;SDS011;11313;50.116;8.424;2022-08-19T22:24:16;4.20;;;3.53;;
22289;SDS011;11313;50.116;8.424;2022-08-19T22:26:42;6.32;;;3.67;;
22289;SDS011;11313;50.116;8.424;2022-08-19T22:29:07;4.95;;;3.50;;
22289;SDS011;11313;50.116;8.424;2022-08-19T22:31:34;5.20;;;3.67;;
22289;SDS011;11313;50.116;8.424;2022-08-19T22:34:01;4.97;;;3.30;;
22289;SDS011;11313;50.116;8.424;2022-08-19T22:36:27;3.47;;;3.17;;
22289;SDS011;11313;50.116;8.424;2022-08-19T22:38:55;4.10;;;3.30;;
22289;SDS011;11313;50.116;8.424;2022-08-19T22:41:21;4.70;;;3.10;;
22289;SDS011;11313;50.116;8.424;2022-08-19T22:43:46;4.22;;;3.03;;
22289;SDS011;11313;50.116;8.424;2022-08-19T22:46:12;4.25;;;3.38;;
22289;SDS011;11313;50.116;8.424;2022-08-19T22:48:38;3.88;;;3.17;;
22289;SDS011;11313;50.116;8.424;2022-08-19T22:51:03;4.70;;;3.30;;
22289;SDS011;11313;50.116;8.424;2022-08-19T22:53:47;3.33;;;2.92;;
22289;SDS011;11313;50.116;8.424;2022-08-19T22:56:17;3.42;;;2.80;;
22289;SDS011;11313;50.116;8.424;2022-08-19T22:58:44;4.13;;;2.78;;
22289;SDS011;11313;50.116;8.424;2022-08-19T23:01:11;3.25;;;2.95;;
22289;SDS011;11313;50.116;8.424;2022-08-19T23:03:39;3.88;;;2.80;;
22289;SDS011;11313;50.116;8.424;2022-08-19T23:06:05;4.65;;;3.35;;
22289;SDS011;11313;50.116;8.424;2022-08-19T23:08:30;4.32;;;3.28;;
22289;SDS011;11313;50.116;8.424;2022-08-19T23:10:56;4.40;;;3.00;;
22289;SDS011;11313;50.116;8.424;2022-08-19T23:13:22;3.22;;;2.90;;
22289;SDS011;11313;50.116;8.424;2022-08-19T23:15:48;3.65;;;2.97;;
22289;SDS011;11313;50.116;8.424;2022-08-19T23:18:14;6.03;;;3.53;;
22289;SDS011;11313;50.116;8.424;2022-08-19T23:20:41;11.10;;;2.95;;
22289;SDS011;11313;50.116;8.424;2022-08-19T23:23:12;7.15;;;3.83;;
22289;SDS011;11313;50.116;8.424;2022-08-19T23:25:42;9.23;;;4.03;;
22289;SDS011;11313;50.116;8.424;2022-08-19T23:28:08;5.03;;;3.30;;
22289;SDS011;11313;50.116;8.424;2022-08-19T23:30:53;14.63;;;3.63;;
22289;SDS011;11313;50.116;8.424;2022-08-19T23:33:23;5.80;;;3.40;;
22289;SDS011;11313;50.116;8.424;2022-08-19T23:35:52;8.80;;;3.78;;
22289;SDS011;11313;50.116;8.424;2022-08-19T23:38:19;5.25;;;3.30;;
22289;SDS011;11313;50.116;8.424;2022-08-19T23:40:47;5.22;;;3.35;;
22289;SDS011;11313;50.116;8.424;2022-08-19T23:43:14;6.50;;;3.20;;
22289;SDS011;11313;50.116;8.424;2022-08-19T23:45:41;5.82;;;3.38;;
22289;SDS011;11313;50.116;8.424;2022-08-19T23:48:07;7.35;;;3.60;;
22289;SDS011;11313;50.116;8.424;2022-08-19T23:50:34;4.60;;;2.65;;
22289;SDS011;11313;50.116;8.424;2022-08-19T23:53:01;4.68;;;3.42;;
22289;SDS011;11313;50.116;8.424;2022-08-19T23:55:28;4.55;;;2.88;;
22289;SDS011;11313;50.116;8.424;2022-08-19T23:57:56;6.20;;;3.15;;
